Time;durP1;ratioP1;P1;durP2;ratioP2;P2;SDS_P1;SDS_P2;PMS_P1;PMS_P2;Temp;Humidity;BMP_temperature;BMP_pressure;BME280_temperature;BME280_humidity;BME280_pressure;Samples;Min_cycle;Max_cycle;Signal;HPM_P1;HPM_P2
2022/12/27 00:01:43;;;;;;;17.20;11.52;;;;;;;2.04;100.00;101429.06;4990898;28;20496;-72
2022/12/27 00:04:09;;;;;;;17.40;11.63;;;;;;;2.14;100.00;101424.78;4990871;28;20026;-72
2022/12/27 00:06:35;;;;;;;15.68;11.05;;;;;;;1.97;100.00;101388.56;4990621;28;20037;-73
2022/12/27 00:09:01;;;;;;;17.27;11.30;;;;;;;2.26;100.00;101434.34;4990490;28;20042;-72
2022/12/27 00:11:28;;;;;;;18.95;11.43;;;;;;;2.24;100.00;101432.44;4989319;28;20544;-73
2022/12/27 00:13:58;;;;;;;16.73;11.00;;;;;;;2.07;100.00;101398.78;4990518;28;20030;-73
2022/12/27 00:16:23;;;;;;;18.40;11.40;;;;;;;2.31;100.00;101442.41;4990636;28;20026;-74
2022/12/27 00:18:51;;;;;;;16.67;11.13;;;;;;;2.28;100.00;101424.31;4990525;28;20429;-74
2022/12/27 00:21:18;;;;;;;18.90;11.40;;;;;;;2.20;100.00;101417.66;4988471;28;20035;-73
2022/12/27 00:23:46;;;;;;;17.20;11.50;;;;;;;2.23;100.00;101428.09;4990561;28;20105;-73
2022/12/27 00:26:17;;;;;;;18.05;11.25;;;;;;;2.18;100.00;101429.38;4990885;28;20026;-73
2022/12/27 00:28:43;;;;;;;18.60;10.77;;;;;;;2.13;100.00;101418.81;4990865;28;20034;-72
2022/12/27 00:31:09;;;;;;;20.77;11.32;;;;;;;1.98;100.00;101387.81;4990870;28;20037;-74
2022/12/27 00:33:37;;;;;;;17.17;12.27;;;;;;;2.24;100.00;101412.06;4991254;28;20026;-75
2022/12/27 00:36:05;;;;;;;19.08;12.10;;;;;;;2.30;100.00;101409.16;4991080;28;20030;-74
2022/12/27 00:38:31;;;;;;;17.15;11.27;;;;;;;2.27;100.00;101414.88;5005212;28;20050;-74
2022/12/27 00:40:57;;;;;;;19.15;11.82;;;;;;;2.23;100.00;101407.72;4991171;28;20058;-74
2022/12/27 00:43:22;;;;;;;18.85;11.50;;;;;;;2.20;100.00;101412.56;4990367;28;20065;-74
2022/12/27 00:45:48;;;;;;;19.83;11.98;;;;;;;2.18;100.00;101421.72;4991420;28;20412;-74
2022/12/27 00:48:13;;;;;;;15.82;11.90;;;;;;;2.03;100.00;101414.56;4990967;28;20093;-74
2022/12/27 00:50:40;;;;;;;17.65;11.52;;;;;;;2.12;100.00;101414.47;4991028;28;20045;-74
2022/12/27 00:53:06;;;;;;;17.65;11.85;;;;;;;2.08;100.00;101408.19;4990899;28;20027;-74
2022/12/27 00:55:32;;;;;;;21.23;12.55;;;;;;;2.09;100.00;101402.34;4991150;28;20030;-72
2022/12/27 00:57:57;;;;;;;20.55;12.65;;;;;;;2.05;100.00;101402.84;4990879;28;20092;-74
2022/12/27 01:00:23;;;;;;;19.58;11.95;;;;;;;1.94;100.00;101383.19;4990374;28;20106;-74
2022/12/27 01:02:48;;;;;;;17.00;11.37;;;;;;;1.85;100.00;101400.22;4990825;28;20053;-74
2022/12/27 01:05:14;;;;;;;16.88;11.80;;;;;;;1.72;100.00;101399.16;4990717;28;20034;-74
2022/12/27 01:07:39;;;;;;;18.50;11.73;;;;;;;1.59;100.00;101391.19;5003060;28;20151;-73
2022/12/27 01:10:05;;;;;;;19.63;12.20;;;;;;;1.54;100.00;101397.53;5013938;28;20034;-74
2022/12/27 01:12:30;;;;;;;18.83;12.03;;;;;;;1.52;100.00;101391.41;5013803;28;20407;-73
2022/12/27 01:14:56;;;;;;;21.20;11.60;;;;;;;1.44;100.00;101394.16;5014312;28;20474;-74
2022/12/27 01:17:21;;;;;;;19.37;12.00;;;;;;;1.44;100.00;101395.84;5014034;28;20400;-74
2022/12/27 01:19:47;;;;;;;17.95;12.00;;;;;;;1.42;100.00;101382.97;5013691;28;20033;-73
2022/12/27 01:22:12;;;;;;;19.50;12.50;;;;;;;1.20;100.00;101336.06;5013839;28;20415;-74
2022/12/27 01:24:38;;;;;;;19.13;13.40;;;;;;;1.49;100.00;101391.16;5013727;28;20412;-74
2022/12/27 01:27:03;;;;;;;24.23;13.93;;;;;;;1.55;100.00;101399.34;5013487;28;20026;-74
2022/12/27 01:29:28;;;;;;;18.93;12.63;;;;;;;1.44;100.00;101393.28;5013322;28;20152;-73
2022/12/27 01:31:54;;;;;;;22.27;14.00;;;;;;;1.18;100.00;101396.06;5013769;28;20053;-74
2022/12/27 01:34:19;;;;;;;20.07;12.57;;;;;;;1.05;100.00;101377.16;5013623;28;20037;-74
2022/12/27 01:36:45;;;;;;;19.67;12.73;;;;;;;0.94;100.00;101339.72;5013678;28;20022;-75
2022/12/27 01:39:11;;;;;;;22.57;13.80;;;;;;;1.25;100.00;101380.59;5013494;28;20400;-73
2022/12/27 01:44:42;;;;;;;20.07;12.53;;;;;;;1.28;100.00;101380.84;5013567;28;20172;-73
2022/12/27 01:47:30;;;;;;;18.83;13.07;;;;;;;1.20;100.00;101384.38;5013319;28;20038;-72
2022/12/27 01:50:08;;;;;;;17.50;13.47;;;;;;;1.13;100.00;101372.75;5013238;28;20033;-73
2022/12/27 01:52:43;;;;;;;20.93;13.40;;;;;;;1.13;100.00;101367.66;5012905;28;20030;-73
2022/12/27 01:55:31;;;;;;;21.67;14.77;;;;;;;1.11;100.00;101376.84;5013300;28;20037;-74
2022/12/27 01:58:02;;;;;;;21.73;14.30;;;;;;;1.18;100.00;101383.34;4995843;28;20029;-73
2022/12/27 02:00:29;;;;;;;23.30;14.67;;;;;;;1.22;100.00;101375.22;5012918;28;20022;-72
2022/12/27 02:02:55;;;;;;;22.23;12.70;;;;;;;1.14;100.00;101364.38;5012810;28;20101;-73
2022/12/27 02:05:23;;;;;;;26.07;13.87;;;;;;;1.27;100.00;101373.97;5012803;28;20423;-73
2022/12/27 02:07:57;;;;;;;19.67;12.93;;;;;;;1.23;100.00;101367.72;5012898;28;20056;-73
2022/12/27 02:10:24;;;;;;;23.03;13.70;;;;;;;1.17;100.00;101358.66;5012925;28;20037;-73
2022/12/27 02:12:50;;;;;;;18.47;11.93;;;;;;;1.19;100.00;101374.97;5012741;28;20096;-73
2022/12/27 02:15:15;;;;;;;20.67;12.90;;;;;;;1.03;100.00;101335.44;5012546;28;20034;-73
2022/12/27 02:17:42;;;;;;;20.37;13.13;;;;;;;1.02;100.00;101342.94;4994637;28;20060;-73
2022/12/27 02:20:20;;;;;;;21.70;13.17;;;;;;;1.06;100.00;101373.88;5013024;28;20040;-73
2022/12/27 02:26:00;;;;;;;20.17;12.45;;;;;;;0.95;100.00;101365.25;5012484;28;20072;-73
2022/12/27 02:28:52;;;;;;;19.50;12.50;;;;;;;1.00;100.00;101369.88;5012411;28;20096;-74
2022/12/27 02:31:23;;;;;;;17.83;12.43;;;;;;;0.99;100.00;101366.44;4913533;29;20041;-73
2022/12/27 02:33:52;;;;;;;19.37;12.50;;;;;;;1.01;100.00;101357.31;4913891;29;20040;-74
2022/12/27 02:36:24;;;;;;;21.63;12.57;;;;;;;1.12;100.00;101358.25;4913601;29;20554;-73
2022/12/27 02:38:53;;;;;;;20.97;13.10;;;;;;;1.04;100.00;101349.94;4913653;29;20070;-73
2022/12/27 02:57:07;;;;;;;19.47;12.87;;;;;;;0.90;100.00;101299.53;4913524;29;20055;-74
2022/12/27 02:59:03;;;;;;;20.23;13.60;;;;;;;1.10;100.00;101350.47;4913209;29;20127;-74
2022/12/27 03:04:34;;;;;;;21.83;13.57;;;;;;;1.03;100.00;101345.59;4913092;29;20047;-74
2022/12/27 03:07:24;;;;;;;20.53;13.20;;;;;;;0.98;100.00;101345.97;4912844;29;20060;-74
2022/12/27 03:16:11;;;;;;;21.57;12.83;;;;;;;0.66;100.00;101324.53;4991809;28;20106;-74
2022/12/27 03:18:48;;;;;;;22.33;14.10;;;;;;;0.72;100.00;101352.13;4992043;28;20053;-74
2022/12/27 03:27:03;;;;;;;23.83;14.73;;;;;;;0.72;100.00;101347.94;4950737;28;20058;-74
2022/12/27 03:35:15;;;;;;;20.00;13.47;;;;;;;0.55;100.00;101304.84;4923877;28;20045;-74
2022/12/27 03:38:02;;;;;;;20.23;14.30;;;;;;;0.70;100.00;101334.22;4950644;28;20611;-74
2022/12/27 03:43:44;;;;;;;23.90;15.00;;;;;;;0.42;100.00;101326.59;4950803;28;20075;-74
2022/12/27 03:46:32;;;;;;;19.93;12.87;;;;;;;0.36;100.00;101317.53;4950633;28;20039;-74
2022/12/27 03:49:27;;;;;;;22.90;13.50;;;;;;;0.17;100.00;101325.13;4950259;28;20062;-74
2022/12/27 03:52:10;;;;;;;21.90;14.43;;;;;;;-0.09;100.00;101326.13;4947707;28;20058;-74
2022/12/27 03:54:40;;;;;;;25.47;15.13;;;;;;;-0.15;100.00;101330.63;4950436;28;20063;-74
2022/12/27 03:57:26;;;;;;;24.03;15.40;;;;;;;-0.02;100.00;101333.56;4934455;29;20057;-74
2022/12/27 03:59:51;;;;;;;23.53;15.50;;;;;;;-0.18;100.00;101288.97;4950188;28;20039;-74
2022/12/27 04:02:18;;;;;;;23.10;14.00;;;;;;;-0.08;100.00;101292.38;4951334;28;20146;-74
2022/12/27 04:04:43;;;;;;;23.43;13.93;;;;;;;0.23;100.00;101330.78;4950070;29;20047;-74
2022/12/27 04:07:12;;;;;;;24.43;15.70;;;;;;;0.18;100.00;101320.19;4949953;29;20051;-74
2022/12/27 04:36:59;;;;;;;23.67;14.43;;;;;;;0.55;100.00;101322.63;4990881;28;20084;-74
2022/12/27 04:39:25;;;;;;;25.23;16.10;;;;;;;0.50;100.00;101332.41;4991337;28;20022;-74
2022/12/27 04:55:40;;;;;;;26.67;16.23;;;;;;;0.22;100.00;101355.25;4994792;28;20127;-74
2022/12/27 04:58:06;;;;;;;22.97;15.83;;;;;;;0.18;100.00;101354.84;5002548;28;20074;-74
2022/12/27 05:03:20;;;;;;;23.03;15.57;;;;;;;0.31;100.00;101350.13;5014359;28;20056;-74
2022/12/27 05:05:47;;;;;;;22.75;15.85;;;;;;;0.31;100.00;101353.59;5013957;28;20033;-79
2022/12/27 05:14:00;;;;;;;30.00;17.47;;;;;;;0.45;100.00;101346.34;5013767;28;20565;-74
2022/12/27 05:16:30;;;;;;;30.97;18.83;;;;;;;0.41;100.00;101347.69;5013740;28;20037;-74
2022/12/27 05:18:55;;;;;;;30.88;20.20;;;;;;;0.53;100.00;101354.66;5013622;28;20435;-74
2022/12/27 05:21:21;;;;;;;32.63;19.33;;;;;;;0.50;100.00;101334.03;5013689;28;20029;-75
2022/12/27 05:26:31;;;;;;;30.83;19.00;;;;;;;0.25;100.00;101302.22;5013745;28;20041;-74
2022/12/27 05:28:58;;;;;;;29.17;20.23;;;;;;;0.53;100.00;101344.50;5013708;28;20026;-74
2022/12/27 05:31:25;;;;;;;31.87;20.07;;;;;;;0.41;100.00;101317.22;5013642;28;20037;-74
2022/12/27 05:33:52;;;;;;;30.90;21.40;;;;;;;0.66;100.00;101359.19;5013447;28;20033;-74
2022/12/27 05:36:19;;;;;;;28.00;20.73;;;;;;;0.66;100.00;101359.19;5013641;28;20022;-74
2022/12/27 05:38:45;;;;;;;26.10;18.93;;;;;;;0.67;100.00;101359.31;5013441;28;20117;-74
2022/12/27 05:41:12;;;;;;;28.93;18.77;;;;;;;0.67;100.00;101366.06;5013289;28;20021;-74
2022/12/27 05:43:38;;;;;;;26.87;17.80;;;;;;;0.47;100.00;101345.72;4994570;28;20060;-74
2022/12/27 05:46:11;;;;;;;25.53;17.33;;;;;;;0.24;100.00;101307.16;5013188;28;20480;-74
2022/12/27 05:48:37;;;;;;;22.27;15.17;;;;;;;0.38;100.00;101366.84;5013208;28;20057;-74
2022/12/27 05:51:08;;;;;;;28.83;17.40;;;;;;;0.38;100.00;101355.03;5013376;28;20057;-74
2022/12/27 05:53:34;;;;;;;31.30;16.73;;;;;;;0.29;100.00;101344.03;5011946;28;20026;-74
2022/12/27 05:55:59;;;;;;;44.03;21.00;;;;;;;0.21;100.00;101353.47;5013169;28;20033;-74
2022/12/27 05:58:25;;;;;;;65.03;21.70;;;;;;;0.17;100.00;101350.53;5013194;28;20036;-74
2022/12/27 06:00:51;;;;;;;55.57;21.63;;;;;;;0.17;100.00;101358.13;5013458;28;20396;-74
2022/12/27 06:03:16;;;;;;;77.30;22.90;;;;;;;0.07;100.00;101354.72;5013069;28;20041;-74
2022/12/27 06:05:42;;;;;;;77.33;22.83;;;;;;;0.17;100.00;101369.16;4995368;28;20033;-74
2022/12/27 06:08:08;;;;;;;51.93;20.43;;;;;;;0.10;100.00;101352.47;5013083;28;20561;-73
2022/12/27 06:10:33;;;;;;;65.10;21.07;;;;;;;0.09;100.00;101350.69;4994455;28;20475;-74
2022/12/27 06:13:01;;;;;;;51.87;19.27;;;;;;;-0.02;100.00;101353.88;5012679;28;20033;-74
2022/12/27 06:15:26;;;;;;;48.00;20.33;;;;;;;-0.11;100.00;101345.38;5012995;28;20092;-74
2022/12/27 06:17:52;;;;;;;50.57;20.60;;;;;;;-0.17;100.00;101343.19;5012705;28;20030;-74
2022/12/27 06:20:17;;;;;;;76.70;21.03;;;;;;;-0.17;100.00;101346.59;5012683;28;20034;-74
2022/12/27 06:22:43;;;;;;;65.83;22.17;;;;;;;-0.25;100.00;101333.94;5012580;28;20037;-73
2022/12/27 06:25:09;;;;;;;59.23;20.87;;;;;;;-0.28;100.00;101333.66;5012452;28;20030;-73
2022/12/27 06:27:34;;;;;;;42.00;20.30;;;;;;;-0.33;100.00;101351.00;5012336;28;20037;-73
2022/12/27 06:30:01;;;;;;;46.87;20.40;;;;;;;-0.39;100.00;101343.69;5012610;28;20096;-72
2022/12/27 06:32:26;;;;;;;51.23;21.83;;;;;;;-0.28;100.00;101346.34;5012515;28;20100;-73
2022/12/27 06:34:52;;;;;;;43.73;21.57;;;;;;;-0.29;100.00;101353.06;5012274;28;20113;-73
2022/12/27 06:37:17;;;;;;;42.03;20.10;;;;;;;-0.34;100.00;101341.59;5012199;28;20386;-73
2022/12/27 06:39:43;;;;;;;43.00;20.97;;;;;;;-0.36;100.00;101343.97;5012093;28;20034;-75
2022/12/27 06:42:09;;;;;;;44.03;21.93;;;;;;;-0.37;100.00;101321.00;5012293;28;20088;-74
2022/12/27 06:44:35;;;;;;;38.20;19.07;;;;;;;-0.37;100.00;101321.00;5012275;28;20065;-75
2022/12/27 06:47:01;;;;;;;39.30;21.23;;;;;;;-0.27;100.00;101338.00;5012116;28;20034;-75
2022/12/27 06:49:26;;;;;;;41.27;22.77;;;;;;;-0.22;100.00;101352.00;5011994;28;20481;-75
2022/12/27 06:51:52;;;;;;;41.77;24.57;;;;;;;-0.11;100.00;101358.06;5012055;28;20034;-74
2022/12/27 06:54:17;;;;;;;37.00;23.37;;;;;;;-0.10;100.00;101344.63;5012123;28;20058;-75
2022/12/27 06:56:43;;;;;;;42.83;23.57;;;;;;;0.14;100.00;101367.25;5011851;28;20026;-74
2022/12/27 06:59:09;;;;;;;47.63;24.70;;;;;;;0.23;100.00;101363.78;5012079;28;20030;-74
2022/12/27 07:01:34;;;;;;;37.90;22.90;;;;;;;0.21;100.00;101353.47;5011805;28;20516;-74
2022/12/27 07:04:00;;;;;;;36.33;22.60;;;;;;;-0.10;100.00;101319.25;5011506;28;20105;-74
2022/12/27 07:06:28;;;;;;;39.47;22.67;;;;;;;0.11;100.00;101359.34;5012028;28;20033;-75
2022/12/27 07:08:54;;;;;;;39.83;23.47;;;;;;;0.22;100.00;101374.69;5011959;28;20381;-75
2022/12/27 07:11:21;;;;;;;39.30;24.73;;;;;;;-0.04;100.00;101318.22;5014170;28;20037;-75
2022/12/27 07:13:49;;;;;;;40.73;24.47;;;;;;;0.32;100.00;101363.00;5031592;28;20029;-75
2022/12/27 07:16:19;;;;;;;45.97;24.20;;;;;;;0.38;100.00;101360.09;5031196;28;20030;-74
2022/12/27 07:18:44;;;;;;;41.20;23.75;;;;;;;0.34;100.00;101344.44;5031515;28;20267;-74
2022/12/27 07:21:16;;;;;;;43.80;26.30;;;;;;;0.41;100.00;101344.25;5031325;28;20396;-74
2022/12/27 07:23:42;;;;;;;57.03;34.00;;;;;;;0.21;100.00;101311.94;5031186;28;20770;-74
2022/12/27 07:26:10;;;;;;;59.47;35.93;;;;;;;0.40;100.00;101353.53;5031302;28;20059;-74
2022/12/27 07:28:37;;;;;;;83.87;46.20;;;;;;;0.46;100.00;101349.00;5031512;28;20081;-75
2022/12/27 07:31:08;;;;;;;48.77;27.00;;;;;;;0.52;100.00;101357.94;5013738;28;20698;-77
2022/12/27 07:33:35;;;;;;;41.20;24.83;;;;;;;0.47;100.00;101358.44;5031054;28;20021;-73
2022/12/27 07:36:01;;;;;;;48.50;28.17;;;;;;;0.36;100.00;101348.03;5030865;28;20491;-74
2022/12/27 07:38:26;;;;;;;55.07;24.77;;;;;;;0.38;100.00;101367.72;5031123;28;20126;-73
2022/12/27 07:40:52;;;;;;;46.57;26.53;;;;;;;0.23;100.00;101329.09;5031208;28;20395;-73
2022/12/27 07:43:17;;;;;;;54.87;24.70;;;;;;;0.44;100.00;101355.59;5030795;28;20025;-74
2022/12/27 07:45:43;;;;;;;56.97;22.13;;;;;;;0.44;100.00;101345.44;5030828;28;20033;-73
2022/12/27 07:48:08;;;;;;;52.03;26.87;;;;;;;0.55;100.00;101351.50;5030757;28;20116;-72
2022/12/27 07:50:33;;;;;;;43.67;22.63;;;;;;;0.68;100.00;101339.91;5030769;28;20029;-74
2022/12/27 07:52:59;;;;;;;42.33;22.03;;;;;;;0.82;100.00;101336.94;5030597;28;20030;-73
2022/12/27 07:55:24;;;;;;;41.10;20.87;;;;;;;0.98;100.00;101330.72;5030697;28;20017;-73
2022/12/27 07:57:50;;;;;;;44.13;21.17;;;;;;;1.09;100.00;101330.91;5030707;28;20079;-73
2022/12/27 08:00:15;;;;;;;41.13;24.10;;;;;;;1.26;100.00;101337.47;5030731;28;20032;-74
2022/12/27 08:02:42;;;;;;;39.17;20.77;;;;;;;1.40;100.00;101331.06;5030736;28;20028;-73
2022/12/27 08:05:08;;;;;;;38.70;21.17;;;;;;;1.42;100.00;101338.81;4995547;28;20041;-73
2022/12/27 08:07:34;;;;;;;39.13;22.53;;;;;;;1.54;100.00;101341.56;5030715;28;20049;-74
2022/12/27 08:10:00;;;;;;;46.47;24.57;;;;;;;1.68;100.00;101338.53;5030348;28;20598;-74
2022/12/27 08:12:25;;;;;;;47.23;29.70;;;;;;;1.81;100.00;101344.69;4979225;28;20056;-74
2022/12/27 08:14:53;;;;;;;43.83;26.13;;;;;;;1.83;100.00;101328.78;5030129;28;20033;-73
2022/12/27 08:17:25;;;;;;;46.83;29.73;;;;;;;1.72;100.00;101299.88;5027434;28;20037;-73
2022/12/27 08:19:52;;;;;;;51.83;28.33;;;;;;;2.00;100.00;101320.03;4996674;28;20038;-74
2022/12/27 08:22:17;;;;;;;53.70;29.37;;;;;;;2.18;100.00;101323.28;4991541;28;20034;-73
2022/12/27 08:24:43;;;;;;;51.40;27.83;;;;;;;2.22;100.00;101320.22;5000607;28;20496;-74
2022/12/27 08:27:09;;;;;;;48.50;28.02;;;;;;;2.29;100.00;101316.50;4998000;28;20061;-74
2022/12/27 08:29:35;;;;;;;45.60;27.25;;;;;;;2.34;100.00;101322.88;5007114;28;20029;-73
2022/12/27 08:32:00;;;;;;;48.47;27.63;;;;;;;2.48;100.00;101323.16;5010407;28;20092;-74
2022/12/27 08:34:26;;;;;;;54.28;29.23;;;;;;;2.52;100.00;101318.44;5010514;28;20113;-74
2022/12/27 08:36:52;;;;;;;54.40;32.47;;;;;;;2.57;100.00;101304.41;5010542;28;20034;-74
2022/12/27 08:39:18;;;;;;;51.20;31.95;;;;;;;2.59;100.00;101277.41;5010246;28;20034;-73
2022/12/27 08:41:43;;;;;;;52.75;32.42;;;;;;;2.99;100.00;101315.47;4995417;28;20035;-73
2022/12/27 08:44:10;;;;;;;52.85;31.58;;;;;;;3.13;100.00;101321.66;4998216;28;20090;-74
2022/12/27 08:46:36;;;;;;;54.63;32.67;;;;;;;3.30;100.00;101319.56;5000967;28;20056;-73
2022/12/27 08:49:03;;;;;;;58.97;35.40;;;;;;;3.46;100.00;101311.47;5000105;28;20027;-73
2022/12/27 08:51:28;;;;;;;48.55;31.23;;;;;;;3.52;100.00;101305.19;5001386;28;20030;-74
2022/12/27 08:53:54;;;;;;;51.60;30.88;;;;;;;3.63;100.00;101302.59;5009093;28;20024;-74
2022/12/27 08:56:19;;;;;;;46.95;29.98;;;;;;;3.78;100.00;101295.25;5004749;28;20025;-74
2022/12/27 08:58:49;;;;;;;41.42;27.30;;;;;;;3.87;100.00;101288.28;5001080;28;20018;-73
2022/12/27 09:01:15;;;;;;;44.72;31.92;;;;;;;3.95;100.00;101279.56;4982631;28;20057;-74
2022/12/27 09:03:40;;;;;;;44.30;33.67;;;;;;;4.15;100.00;101281.06;4999108;28;20026;-74
2022/12/27 09:06:08;;;;;;;43.72;30.23;;;;;;;4.30;100.00;101276.22;4983363;28;20034;-73
2022/12/27 09:08:34;;;;;;;45.05;29.58;;;;;;;4.50;100.00;101279.38;4999364;28;20085;-74
2022/12/27 09:11:11;;;;;;;37.95;22.23;;;;;;;4.47;100.00;101264.69;5009969;28;20064;-74
2022/12/27 09:13:36;;;;;;;34.70;21.48;;;;;;;4.64;100.00;101286.41;5008615;28;20447;-74
2022/12/27 09:16:07;;;;;;;35.88;23.35;;;;;;;4.77;100.00;101284.75;5008968;28;20088;-74
2022/12/27 09:18:33;;;;;;;38.15;26.13;;;;;;;4.86;100.00;101278.63;5007501;28;20022;-74
2022/12/27 09:21:06;;;;;;;41.97;26.42;;;;;;;4.95;100.00;101270.72;4979470;28;20485;-74
2022/12/27 09:23:32;;;;;;;39.35;25.40;;;;;;;5.04;100.00;101277.31;4977885;28;20034;-74
2022/12/27 09:25:57;;;;;;;39.47;26.65;;;;;;;5.13;100.00;101260.91;4977606;28;20046;-74
2022/12/27 09:28:23;;;;;;;36.20;22.95;;;;;;;5.34;100.00;101276.03;4982349;28;20034;-74
2022/12/27 09:30:48;;;;;;;35.85;25.58;;;;;;;5.46;100.00;101273.47;4982105;28;20054;-74
2022/12/27 09:33:14;;;;;;;29.45;20.05;;;;;;;5.61;100.00;101271.97;4981181;28;20101;-74
2022/12/27 09:35:39;;;;;;;36.88;25.15;;;;;;;5.73;100.00;101259.16;4980784;28;20034;-74
2022/12/27 09:38:05;;;;;;;45.55;35.95;;;;;;;5.99;100.00;101271.22;4982100;28;20065;-74
2022/12/27 09:40:30;;;;;;;30.67;23.27;;;;;;;6.14;100.00;101258.56;4980372;28;20031;-74
2022/12/27 09:43:07;;;;;;;29.67;20.85;;;;;;;6.32;100.00;101255.44;4982507;28;20069;-73
2022/12/27 09:45:38;;;;;;;24.98;17.25;;;;;;;6.47;100.00;101248.75;4990148;28;20176;-73
2022/12/27 09:48:12;;;;;;;29.17;18.50;;;;;;;6.64;100.00;101243.81;4991212;28;20489;-74
2022/12/27 09:51:02;;;;;;;30.95;20.88;;;;;;;6.76;100.00;101212.97;4990245;28;20030;-74
2022/12/27 09:53:45;;;;;;;;;;;;;;;7.12;100.00;101234.94;5009276;28;20044;-71
2022/12/27 09:56:17;;;;;;;37.58;21.10;;;;;;;7.34;100.00;101222.56;4993766;28;20009;-72
2022/12/27 09:58:55;;;;;;;40.28;27.88;;;;;;;7.49;100.00;101207.19;4996674;28;20042;-73
2022/12/27 10:01:32;;;;;;;31.85;21.73;;;;;;;7.71;100.00;101211.97;5002101;28;20523;-73
2022/12/27 10:03:58;;;;;;;39.30;28.40;;;;;;;7.84;100.00;101211.91;5001652;28;20411;-71
2022/12/27 10:06:38;;;;;;;31.23;19.95;;;;;;;7.89;100.00;101207.94;5002080;28;20416;-72
2022/12/27 10:09:32;;;;;;;24.30;16.73;;;;;;;7.76;100.00;101202.84;5002632;28;20125;-70
2022/12/27 10:12:09;;;;;;;41.40;26.13;;;;;;;7.82;100.00;101203.22;5005896;28;20034;-70
2022/12/27 10:15:12;;;;;;;32.72;22.27;;;;;;;7.92;100.00;101204.66;5010913;28;20038;-70
2022/12/27 10:17:59;;;;;;;28.70;19.83;;;;;;;8.05;100.00;101199.44;5011210;28;20030;-71
2022/12/27 10:20:52;;;;;;;20.38;14.23;;;;;;;8.08;100.00;101209.03;5011398;28;20037;-72
2022/12/27 10:23:23;;;;;;;19.50;15.35;;;;;;;8.12;100.00;101197.25;5010232;28;20649;-73
2022/12/27 10:25:57;;;;;;;25.38;18.55;;;;;;;8.21;100.00;101208.97;5010326;28;20409;-72
2022/12/27 10:28:28;;;;;;;30.70;20.38;;;;;;;8.16;100.00;101183.75;5011786;28;20033;-72
2022/12/27 10:30:54;;;;;;;32.17;24.35;;;;;;;8.34;100.00;101189.97;4993567;28;20484;-73
2022/12/27 10:33:26;;;;;;;29.27;20.48;;;;;;;8.29;100.00;101187.91;5011085;28;20029;-72
2022/12/27 10:35:52;;;;;;;21.85;14.32;;;;;;;8.32;100.00;101173.53;5010978;28;20030;-73
2022/12/27 10:38:38;;;;;;;28.15;21.35;;;;;;;8.52;100.00;101167.00;5010255;28;20121;-73
2022/12/27 10:41:32;;;;;;;23.48;18.45;;;;;;;8.57;100.00;101142.41;4988660;28;20048;-73
2022/12/27 10:43:57;;;;;;;34.30;24.48;;;;;;;8.55;100.00;101136.28;4972810;28;20492;-72
2022/12/27 10:46:24;;;;;;;24.50;19.38;;;;;;;8.62;100.00;101131.47;4972501;28;20035;-73
2022/12/27 10:48:52;;;;;;;25.15;19.00;;;;;;;8.80;100.00;101129.94;4988942;28;20044;-73
2022/12/27 10:51:18;;;;;;;21.45;15.55;;;;;;;8.90;100.00;101129.63;4988872;28;20031;-73
2022/12/27 10:53:43;;;;;;;20.17;14.15;;;;;;;9.07;100.00;101132.22;4988898;28;20026;-73
2022/12/27 10:56:23;;;;;;;21.45;14.73;;;;;;;9.23;100.00;101134.81;4988474;28;20149;-72
2022/12/27 10:58:50;;;;;;;19.05;15.40;;;;;;;9.10;100.00;101091.19;4988095;28;20053;-73
2022/12/27 11:01:23;;;;;;;17.35;14.38;;;;;;;9.48;100.00;101119.75;4988737;28;20065;-72
2022/12/27 11:03:50;;;;;;;18.02;14.40;;;;;;;9.47;100.00;101108.56;4988426;28;20038;-72
2022/12/27 11:06:23;;;;;;;23.48;17.77;;;;;;;9.47;100.00;101085.38;4988438;28;20061;-73
2022/12/27 11:08:50;;;;;;;19.33;13.50;;;;;;;9.63;100.00;101105.09;4987995;28;20061;-73
2022/12/27 11:11:23;;;;;;;20.48;13.95;;;;;;;9.59;100.00;101066.19;4992347;28;20133;-73
2022/12/27 11:13:50;;;;;;;20.48;13.18;;;;;;;9.90;100.00;101107.28;5010762;28;20041;-71
2022/12/27 11:16:31;;;;;;;19.50;12.25;;;;;;;9.90;100.00;101103.81;5010295;28;20026;-72
2022/12/27 11:18:59;;;;;;;16.10;11.18;;;;;;;9.96;100.00;101115.31;5006402;28;20469;-72
2022/12/27 11:21:26;;;;;;;17.20;12.60;;;;;;;10.03;100.00;101119.06;5010615;28;20032;-71
2022/12/27 11:23:56;;;;;;;17.20;12.43;;;;;;;10.10;100.00;101120.28;5010646;28;20029;-71
2022/12/27 11:26:26;;;;;;;24.05;15.25;;;;;;;10.11;100.00;101112.59;5011698;28;20034;-72
2022/12/27 11:28:56;;;;;;;;;;;;;;;10.19;100.00;101112.97;5011080;28;20502;-71
2022/12/27 11:31:50;;;;;;;16.25;11.95;;;;;;;10.17;100.00;101097.41;5010964;28;19923;-71
2022/12/27 11:34:21;;;;;;;20.92;15.63;;;;;;;10.23;100.00;101099.44;4969419;28;20413;-71
2022/12/27 11:36:54;;;;;;;26.55;18.35;;;;;;;10.33;100.00;101105.91;4968768;28;20099;-74
2022/12/27 11:39:51;;;;;;;27.88;19.67;;;;;;;10.43;100.00;101107.25;4968399;28;20050;-74
2022/12/27 11:42:19;;;;;;;30.33;21.42;;;;;;;10.48;100.00;101090.28;4968902;28;20128;-72
2022/12/27 11:45:04;;;;;;;20.25;13.98;;;;;;;10.34;100.00;101061.22;4969185;28;20538;-72
2022/12/27 11:47:37;;;;;;;18.25;12.00;;;;;;;10.45;100.00;101085.88;4969495;28;20034;-72
2022/12/27 11:50:21;;;;;;;19.48;13.05;;;;;;;10.48;100.00;101075.69;4967583;28;20441;-73
2022/12/27 11:52:52;;;;;;;19.80;15.00;;;;;;;10.63;100.00;101075.53;4968790;28;20047;-75
2022/12/27 11:55:29;;;;;;;17.35;13.40;;;;;;;10.76;100.00;101058.03;4968905;28;20027;-74
2022/12/27 11:58:43;;;;;;;19.58;13.88;;;;;;;10.81;100.00;101059.13;4968192;28;20101;-72
2022/12/27 12:01:30;;;;;;;18.52;14.15;;;;;;;10.80;100.00;101052.16;4968580;28;20445;-72
2022/12/27 12:04:10;;;;;;;18.15;13.02;;;;;;;10.88;100.00;101043.09;4968715;28;20125;-72
2022/12/27 12:06:41;;;;;;;16.88;11.60;;;;;;;10.95;100.00;101057.16;4968746;28;20050;-72
2022/12/27 12:09:33;;;;;;;20.33;16.17;;;;;;;10.96;100.00;101058.91;4968600;28;20053;-71
2022/12/27 12:12:24;;;;;;;17.13;13.43;;;;;;;11.02;100.00;101061.78;5004068;28;20095;-72
2022/12/27 12:15:15;;;;;;;35.45;24.58;;;;;;;11.11;100.00;101051.84;5009602;28;20045;-73
2022/12/27 12:18:42;;;;;;;17.50;14.93;;;;;;;11.21;100.00;101047.09;4987774;28;20050;-73
2022/12/27 12:21:39;;;;;;;22.25;18.58;;;;;;;11.31;100.00;101052.72;4988142;28;20125;-72
2022/12/27 12:24:23;;;;;;;17.25;13.00;;;;;;;11.28;100.00;101047.41;4988232;28;20030;-73
2022/12/27 12:27:07;;;;;;;16.13;11.98;;;;;;;11.32;100.00;101040.69;4988088;28;20042;-72
2022/12/27 12:30:01;;;;;;;15.43;11.60;;;;;;;11.27;100.00;101037.00;4978091;28;20093;-72
2022/12/27 12:32:50;;;;;;;13.82;11.00;;;;;;;11.21;100.00;101031.59;4987793;28;20480;-72
2022/12/27 12:35:43;;;;;;;15.18;11.00;;;;;;;11.26;100.00;101035.25;4988176;28;20063;-72
2022/12/27 12:38:19;;;;;;;13.93;10.88;;;;;;;11.16;100.00;101010.69;4987838;28;20074;-74
2022/12/27 12:41:42;;;;;;;14.38;11.07;;;;;;;11.32;100.00;101032.91;4988005;28;20170;-71
2022/12/27 12:44:44;;;;;;;15.27;10.63;;;;;;;11.28;100.00;101034.50;4911333;29;20036;-73
2022/12/27 12:47:12;;;;;;;16.77;9.68;;;;;;;11.29;100.00;101043.13;4894942;29;20036;-74
2022/12/27 12:50:04;;;;;;;14.60;9.85;;;;;;;11.03;100.00;100998.06;4921323;29;20514;-72
2022/12/27 12:52:51;;;;;;;13.18;9.95;;;;;;;11.26;100.00;101038.69;4930383;29;20051;-72
2022/12/27 12:55:32;;;;;;;12.05;9.43;;;;;;;11.35;100.00;101045.97;4930206;29;20050;-72
2022/12/27 12:58:10;;;;;;;14.55;10.43;;;;;;;11.39;100.00;101045.31;4929967;29;20032;-74
2022/12/27 13:00:53;;;;;;;14.55;10.88;;;;;;;11.33;100.00;101040.75;4929549;29;20195;-73
2022/12/27 13:03:34;;;;;;;17.00;14.02;;;;;;;11.41;100.00;101041.06;4916881;29;20044;-73